Time;durP1;ratioP1;P1;durP2;ratioP2;P2;SDS_P1;SDS_P2;PMS_P1;PMS_P2;Temp;Humidity;BMP_temperature;BMP_pressure;BME280_temperature;BME280_humidity;BME280_pressure;Samples;Min_cycle;Max_cycle;Signal;HPM_P1;HPM_P2
2023/01/24 00:02:23;;;;;;;18.70;13.63;;;;;;;;;;5057307;28;20209;-72
2023/01/24 00:04:49;;;;;;;19.23;14.93;;;;;;;;;;5056643;28;20186;-73
2023/01/24 00:07:15;;;;;;;20.13;14.20;;;;;;;;;;5057173;28;20177;-73
2023/01/24 00:09:41;;;;;;;21.37;16.23;;;;;;;;;;5039490;28;20198;-72
2023/01/24 00:12:07;;;;;;;19.07;15.50;;;;;;;;;;5057613;28;20170;-73
2023/01/24 00:14:32;;;;;;;20.43;15.93;;;;;;;;;;5057363;28;20300;-73
2023/01/24 00:16:58;;;;;;;18.40;16.37;;;;;;;;;;5057480;28;20181;-73
2023/01/24 00:19:25;;;;;;;16.60;13.10;;;;;;;;;;5057556;28;20198;-73
2023/01/24 00:21:51;;;;;;;18.87;14.00;;;;;;;;;;5057435;28;20178;-72
2023/01/24 00:24:18;;;;;;;21.60;16.07;;;;;;;;;;5057794;28;20178;-72
2023/01/24 00:26:44;;;;;;;20.87;16.20;;;;;;;;;;5058023;28;20182;-72
2023/01/24 00:29:10;;;;;;;10.83;7.70;;;;;;;;;;5057452;28;20613;-72
2023/01/24 00:31:36;;;;;;;19.00;16.30;;;;;;;;;;5057253;28;20547;-73
2023/01/24 00:34:02;;;;;;;21.07;16.83;;;;;;;;;;5057281;28;20209;-71
2023/01/24 00:36:28;;;;;;;20.80;14.87;;;;;;;;;;5057557;28;20703;-72
2023/01/24 00:38:54;;;;;;;20.73;15.93;;;;;;;;;;5061670;28;20754;-73
2023/01/24 00:41:21;;;;;;;28.50;20.37;;;;;;;;;;5039839;28;20183;-73
2023/01/24 00:43:46;;;;;;;22.03;17.03;;;;;;;;;;5057154;28;20209;-74
2023/01/24 00:46:13;;;;;;;27.63;20.67;;;;;;;;;;5040094;28;20182;-73
2023/01/24 00:48:38;;;;;;;27.07;20.13;;;;;;;;;;5058357;28;20246;-72
2023/01/24 00:51:05;;;;;;;26.33;20.47;;;;;;;;;;5057984;28;20409;-72
2023/01/24 00:53:31;;;;;;;28.47;18.50;;;;;;;;;;5058547;28;20236;-72
2023/01/24 00:55:57;;;;;;;24.73;19.80;;;;;;;;;;5056952;28;20401;-70
2023/01/24 00:58:23;;;;;;;14.73;9.60;;;;;;;;;;5056573;28;20443;-73
2023/01/24 01:00:49;;;;;;;22.50;17.97;;;;;;;;;;5038149;28;20178;-72
2023/01/24 01:03:16;;;;;;;20.57;14.33;;;;;;;;;;5038015;28;20235;-71
2023/01/24 01:05:42;;;;;;;17.47;12.83;;;;;;;;;;5055773;28;20220;-75
2023/01/24 01:08:09;;;;;;;11.30;8.93;;;;;;;;;;5055555;28;20452;-71
2023/01/24 01:10:35;;;;;;;21.77;15.20;;;;;;;;;;5055899;28;20541;-73
2023/01/24 01:13:01;;;;;;;16.40;11.23;;;;;;;;;;5056309;28;20496;-70
2023/01/24 01:15:26;;;;;;;18.03;13.50;;;;;;;;;;5056123;28;20210;-72
2023/01/24 01:17:52;;;;;;;16.00;11.67;;;;;;;;;;5056010;28;20213;-73
2023/01/24 01:20:18;;;;;;;15.50;12.03;;;;;;;;;;5056153;28;20203;-74
2023/01/24 01:22:44;;;;;;;18.37;13.87;;;;;;;;;;5055547;28;20202;-73
2023/01/24 01:25:10;;;;;;;18.07;14.43;;;;;;;;;;5055402;28;20417;-72
2023/01/24 01:27:36;;;;;;;17.40;13.60;;;;;;;;;;5037287;28;20206;-72
2023/01/24 01:30:03;;;;;;;14.43;11.37;;;;;;;;;;5055268;28;20194;-72
2023/01/24 01:32:28;;;;;;;12.50;9.00;;;;;;;;;;5055114;28;20555;-73
2023/01/24 01:34:54;;;;;;;17.17;12.17;;;;;;;;;;5055775;28;20405;-72
2023/01/24 01:37:20;;;;;;;16.73;13.37;;;;;;;;;;5056058;28;20628;-73
2023/01/24 01:39:46;;;;;;;16.03;9.80;;;;;;;;;;5038914;28;20198;-73
2023/01/24 01:42:14;;;;;;;18.27;14.37;;;;;;;;;;5055892;28;20189;-74
2023/01/24 01:44:42;;;;;;;17.53;14.97;;;;;;;;;;5055847;28;20166;-74
2023/01/24 01:47:13;;;;;;;19.33;14.60;;;;;;;;;;5055666;28;20408;-73
2023/01/24 01:49:40;;;;;;;21.20;16.53;;;;;;;;;;5038303;28;20214;-72
2023/01/24 01:52:07;;;;;;;20.33;14.90;;;;;;;;;;5055937;28;20170;-71
2023/01/24 01:54:36;;;;;;;17.87;14.40;;;;;;;;;;5056331;28;20170;-72
2023/01/24 01:57:06;;;;;;;18.93;13.10;;;;;;;;;;5038732;28;20186;-71
2023/01/24 01:59:36;;;;;;;19.03;13.60;;;;;;;;;;5055465;28;20456;-73
2023/01/24 02:02:02;;;;;;;17.47;13.13;;;;;;;;;;5037766;28;20277;-72
2023/01/24 02:04:40;;;;;;;19.30;15.77;;;;;;;;;;5056085;28;20206;-74
2023/01/24 02:07:20;;;;;;;17.40;14.33;;;;;;;;;;5055679;28;20389;-74
2023/01/24 02:09:47;;;;;;;18.90;14.67;;;;;;;;;;5038693;28;20297;-72
2023/01/24 02:12:16;;;;;;;17.73;14.27;;;;;;;;;;5056068;28;20433;-73
2023/01/24 02:17:27;;;;;;;18.83;15.30;;;;;;;;;;5055910;28;20380;-73
2023/01/24 02:20:00;;;;;;;16.37;12.53;;;;;;;;;;5037900;28;20425;-72
2023/01/24 02:22:35;;;;;;;16.73;13.97;;;;;;;;;;5056029;28;20170;-73
2023/01/24 02:25:08;;;;;;;15.97;13.10;;;;;;;;;;5055644;28;20171;-73
2023/01/24 02:27:34;;;;;;;18.60;15.07;;;;;;;;;;5055629;28;20189;-73
2023/01/24 02:30:00;;;;;;;15.57;12.57;;;;;;;;;;5055253;28;20198;-72
2023/01/24 02:32:26;;;;;;;9.50;7.00;;;;;;;;;;5055399;28;20455;-72
2023/01/24 02:34:52;;;;;;;7.57;5.80;;;;;;;;;;5055044;28;20178;-69
2023/01/24 02:37:19;;;;;;;12.57;9.77;;;;;;;;;;5055692;28;20691;-73
2023/01/24 02:39:54;;;;;;;14.67;10.63;;;;;;;;;;5055704;28;20205;-73
2023/01/24 02:42:22;;;;;;;7.10;5.93;;;;;;;;;;5055292;28;20487;-74
2023/01/24 02:45:04;;;;;;;11.97;9.63;;;;;;;;;;5054845;28;20471;-73
2023/01/24 02:47:32;;;;;;;13.70;9.80;;;;;;;;;;5054844;28;20446;-72
2023/01/24 02:50:01;;;;;;;13.20;9.77;;;;;;;;;;5038214;28;20202;-73
2023/01/24 02:55:13;;;;;;;13.93;9.97;;;;;;;;;;5055242;28;20452;-73
2023/01/24 03:00:24;;;;;;;9.97;8.30;;;;;;;;;;5058614;28;20463;-72
2023/01/24 03:02:50;;;;;;;12.27;10.10;;;;;;;;;;5058903;28;20421;-72
2023/01/24 03:05:16;;;;;;;10.90;7.13;;;;;;;;;;5054419;28;20472;-72
2023/01/24 03:07:44;;;;;;;11.37;8.40;;;;;;;;;;5078289;28;20206;-72
2023/01/24 03:10:10;;;;;;;11.47;8.60;;;;;;;;;;5048383;28;20198;-73
2023/01/24 03:34:50;;;;;;;8.63;7.33;;;;;;;;;;5056209;28;20467;-73
2023/01/24 03:39:53;;;;;;;10.07;8.37;;;;;;;;;;5056679;28;20159;-72
2023/01/24 03:40:03;;;;;;;11.40;9.07;;;;;;;;;;5055923;28;20482;-73
2023/01/24 03:42:29;;;;;;;11.57;9.13;;;;;;;;;;5038238;28;20906;-73
2023/01/24 03:44:55;;;;;;;12.20;7.97;;;;;;;;;;5056457;28;20174;-73
2023/01/24 03:47:21;;;;;;;10.57;8.47;;;;;;;;;;5038148;28;21038;-72
2023/01/24 03:52:32;;;;;;;12.30;8.50;;;;;;;;;;5056747;28;20197;-72
2023/01/24 03:54:59;;;;;;;11.07;8.90;;;;;;;;;;5038196;28;20915;-72
2023/01/24 03:57:26;;;;;;;11.03;8.80;;;;;;;;;;5056094;28;20257;-73
2023/01/24 03:59:52;;;;;;;10.37;8.47;;;;;;;;;;5037430;28;20547;-74
2023/01/24 04:02:18;;;;;;;11.03;8.53;;;;;;;;;;5056002;28;20439;-72
2023/01/24 04:07:28;;;;;;;10.50;7.87;;;;;;;;;;5056290;28;20408;-74
2023/01/24 04:09:54;;;;;;;10.60;8.43;;;;;;;;;;5037857;28;20573;-73
2023/01/24 04:12:20;;;;;;;10.27;7.47;;;;;;;;;;5056358;28;20201;-72
2023/01/24 04:14:46;;;;;;;8.63;6.47;;;;;;;;;;5057506;28;20171;-73
2023/01/24 04:17:12;;;;;;;12.97;6.90;;;;;;;;;;5039632;28;20185;-73
2023/01/24 04:19:38;;;;;;;9.73;8.00;;;;;;;;;;5039321;28;20202;-73
2023/01/24 04:22:04;;;;;;;7.97;6.37;;;;;;;;;;5039193;28;20432;-72
2023/01/24 04:24:30;;;;;;;8.23;7.07;;;;;;;;;;5058674;28;20180;-74
2023/01/24 04:26:56;;;;;;;10.70;7.37;;;;;;;;;;5057481;28;20223;-72
2023/01/24 04:29:22;;;;;;;11.03;7.17;;;;;;;;;;5055630;28;20206;-73
2023/01/24 04:31:48;;;;;;;7.77;5.60;;;;;;;;;;5056150;28;20179;-75
2023/01/24 04:34:14;;;;;;;9.03;7.03;;;;;;;;;;5056073;28;20644;-75
2023/01/24 04:36:40;;;;;;;9.53;7.47;;;;;;;;;;5056014;28;20179;-74
2023/01/24 04:39:06;;;;;;;8.23;6.97;;;;;;;;;;5056593;28;20200;-73
2023/01/24 04:41:32;;;;;;;10.30;8.67;;;;;;;;;;5056924;28;20178;-73
2023/01/24 04:43:58;;;;;;;12.97;8.50;;;;;;;;;;5056716;28;20669;-73
2023/01/24 04:46:24;;;;;;;9.83;8.27;;;;;;;;;;5056287;28;20413;-74
2023/01/24 04:48:50;;;;;;;11.67;8.90;;;;;;;;;;5037751;28;20312;-73
2023/01/24 04:51:16;;;;;;;9.40;6.73;;;;;;;;;;5087677;22;20237;-70
2023/01/24 04:53:42;;;;;;;13.60;7.33;;;;;;;;;;5074562;28;20170;-69
2023/01/24 04:56:08;;;;;;;9.97;7.37;;;;;;;;;;5074435;28;20411;-68
2023/01/24 04:58:34;;;;;;;10.53;7.97;;;;;;;;;;5074600;28;20174;-70
2023/01/24 05:01:01;;;;;;;9.07;7.37;;;;;;;;;;5074039;28;20705;-70
2023/01/24 05:03:27;;;;;;;9.37;7.97;;;;;;;;;;5074360;28;20396;-70
2023/01/24 05:05:53;;;;;;;10.83;8.63;;;;;;;;;;5074285;28;20547;-70
2023/01/24 05:08:19;;;;;;;12.10;8.97;;;;;;;;;;5072947;28;20213;-71
2023/01/24 05:10:46;;;;;;;9.73;8.20;;;;;;;;;;5074304;28;20176;-70
2023/01/24 05:13:12;;;;;;;12.37;9.03;;;;;;;;;;5074151;28;20408;-70
2023/01/24 05:15:38;;;;;;;10.73;8.67;;;;;;;;;;5074178;28;20458;-70
2023/01/24 05:18:04;;;;;;;10.83;7.70;;;;;;;;;;5072913;28;20420;-69
2023/01/24 05:20:30;;;;;;;10.83;7.63;;;;;;;;;;5073356;28;20192;-70
2023/01/24 05:22:57;;;;;;;12.63;8.57;;;;;;;;;;5072655;28;20811;-70
2023/01/24 05:25:23;;;;;;;10.10;8.00;;;;;;;;;;5073916;28;20416;-70
2023/01/24 05:27:49;;;;;;;11.03;8.37;;;;;;;;;;5073915;28;20474;-70
2023/01/24 05:30:15;;;;;;;11.53;8.93;;;;;;;;;;5074136;28;20412;-70
2023/01/24 05:32:41;;;;;;;9.57;7.70;;;;;;;;;;5077248;28;20226;-70
2023/01/24 05:35:08;;;;;;;10.40;8.27;;;;;;;;;;5079416;28;20415;-70
2023/01/24 05:37:37;;;;;;;12.40;8.73;;;;;;;;;;5078813;28;20404;-70
2023/01/24 05:40:04;;;;;;;14.70;10.40;;;;;;;;;;5073849;28;20444;-71
2023/01/24 05:42:30;;;;;;;9.37;7.57;;;;;;;;;;5075769;28;20432;-70
2023/01/24 05:44:56;;;;;;;13.80;10.23;;;;;;;;;;5075172;28;20423;-70
2023/01/24 05:47:22;;;;;;;10.10;7.97;;;;;;;;;;5075452;28;20474;-70
2023/01/24 05:49:48;;;;;;;14.30;11.43;;;;;;;;;;5074978;28;20205;-70
2023/01/24 05:52:21;;;;;;;13.73;10.70;;;;;;;;;;5074388;28;20877;-70
2023/01/24 05:54:50;;;;;;;15.00;12.47;;;;;;;;;;5073179;28;20591;-70
2023/01/24 05:57:16;;;;;;;13.23;10.47;;;;;;;;;;5074429;28;20408;-71
2023/01/24 05:59:42;;;;;;;16.97;12.53;;;;;;;;;;5073849;28;20503;-70
2023/01/24 06:02:08;;;;;;;14.50;12.03;;;;;;;;;;5073947;28;20447;-71
2023/01/24 06:04:34;;;;;;;17.07;10.73;;;;;;;;;;5073709;28;20881;-71
2023/01/24 06:06:59;;;;;;;14.80;10.20;;;;;;;;;;5072498;28;20185;-72
2023/01/24 06:09:25;;;;;;;14.13;11.27;;;;;;;;;;5073548;28;20208;-71
2023/01/24 06:11:51;;;;;;;14.53;11.03;;;;;;;;;;5073521;28;20198;-71
2023/01/24 06:14:17;;;;;;;16.13;11.73;;;;;;;;;;5074333;28;20174;-71
2023/01/24 06:16:44;;;;;;;13.10;11.47;;;;;;;;;;5072476;28;20177;-71
2023/01/24 06:19:11;;;;;;;14.43;11.83;;;;;;;;;;5074307;28;20805;-71
2023/01/24 06:21:37;;;;;;;15.73;11.50;;;;;;;;;;5072579;28;20488;-69
2023/01/24 06:24:04;;;;;;;13.77;10.53;;;;;;;;;;5072356;28;20177;-72
2023/01/24 06:26:31;;;;;;;17.87;12.33;;;;;;;;;;5074007;28;20178;-71
2023/01/24 06:28:57;;;;;;;14.83;12.30;;;;;;;;;;5073370;28;20202;-71
2023/01/24 06:31:46;;;;;;;14.20;11.60;;;;;;;;;;5075019;28;20305;-69
2023/01/24 06:34:15;;;;;;;14.57;11.97;;;;;;;;;;5073134;28;20229;-71
2023/01/24 06:37:01;;;;;;;14.07;10.90;;;;;;;;;;5077587;28;20188;-71
2023/01/24 06:39:27;;;;;;;11.83;8.87;;;;;;;;;;5077626;28;20253;-69
2023/01/24 06:41:53;;;;;;;12.93;11.10;;;;;;;;;;5077387;28;20225;-72
2023/01/24 06:44:19;;;;;;;19.67;12.90;;;;;;;;;;5077494;28;20181;-71
2023/01/24 06:46:45;;;;;;;17.47;13.77;;;;;;;;;;5076248;28;20635;-71
2023/01/24 06:49:12;;;;;;;17.50;13.67;;;;;;;;;;5076026;28;20201;-71
2023/01/24 06:51:37;;;;;;;12.33;8.77;;;;;;;;;;5077279;28;20217;-71
2023/01/24 06:54:03;;;;;;;14.40;10.37;;;;;;;;;;5076017;28;20181;-71
2023/01/24 06:56:29;;;;;;;17.70;13.47;;;;;;;;;;5075668;28;20230;-70
2023/01/24 06:58:55;;;;;;;19.80;15.00;;;;;;;;;;5077137;28;20189;-71
2023/01/24 07:01:21;;;;;;;19.17;15.23;;;;;;;;;;5075703;28;20206;-71
2023/01/24 07:03:47;;;;;;;21.17;14.73;;;;;;;;;;5077182;28;20558;-70
2023/01/24 07:06:13;;;;;;;22.43;13.20;;;;;;;;;;5077043;28;20181;-71
2023/01/24 07:08:39;;;;;;;22.50;16.87;;;;;;;;;;5076904;28;20240;-70
2023/01/24 07:11:05;;;;;;;23.17;16.73;;;;;;;;;;5077169;28;20428;-70
2023/01/24 07:13:31;;;;;;;24.93;17.87;;;;;;;;;;5076967;28;20539;-71
2023/01/24 07:16:00;;;;;;;26.87;16.57;;;;;;;;;;5076751;28;20616;-69
2023/01/24 07:18:26;;;;;;;27.53;20.63;;;;;;;;;;5075818;28;20181;-70
2023/01/24 07:20:52;;;;;;;26.20;19.33;;;;;;;;;;5077277;28;20198;-70
2023/01/24 07:23:23;;;;;;;23.87;18.53;;;;;;;;;;5075562;28;20209;-71
2023/01/24 07:25:49;;;;;;;25.40;18.50;;;;;;;;;;5076506;28;20174;-71
2023/01/24 07:28:15;;;;;;;25.60;19.67;;;;;;;;;;5076515;28;20254;-71
2023/01/24 07:30:41;;;;;;;24.43;19.67;;;;;;;;;;5076488;28;20428;-71
2023/01/24 07:33:07;;;;;;;24.57;19.20;;;;;;;;;;5076680;28;20182;-71
2023/01/24 07:35:33;;;;;;;24.93;18.50;;;;;;;;;;5076894;28;20181;-71
2023/01/24 07:38:00;;;;;;;23.90;19.03;;;;;;;;;;5076665;28;20188;-70
2023/01/24 07:40:26;;;;;;;23.30;18.13;;;;;;;;;;5075461;28;20235;-71
2023/01/24 07:42:52;;;;;;;22.47;16.93;;;;;;;;;;5075728;28;20431;-71
2023/01/24 07:45:20;;;;;;;21.23;15.40;;;;;;;;;;5076708;28;20283;-72
2023/01/24 07:47:46;;;;;;;26.40;20.37;;;;;;;;;;5074986;28;20189;-71
2023/01/24 07:50:12;;;;;;;27.27;20.27;;;;;;;;;;5075048;28;20507;-70
2023/01/24 07:52:38;;;;;;;25.00;19.47;;;;;;;;;;5076371;28;20209;-71
2023/01/24 07:55:04;;;;;;;27.80;21.10;;;;;;;;;;5075304;28;20185;-72
2023/01/24 07:57:30;;;;;;;23.63;18.00;;;;;;;;;;5076623;28;20201;-71
2023/01/24 07:59:56;;;;;;;24.37;19.27;;;;;;;;;;5076151;28;20639;-72
2023/01/24 08:02:22;;;;;;;25.83;20.57;;;;;;;;;;5076199;28;20676;-71
2023/01/24 08:04:48;;;;;;;25.20;19.67;;;;;;;;;;5076412;28;20189;-71
2023/01/24 08:07:17;;;;;;;22.13;16.00;;;;;;;;;;5076082;28;20196;-70
2023/01/24 08:09:43;;;;;;;20.03;14.40;;;;;;;;;;5075986;28;20208;-70
2023/01/24 08:12:09;;;;;;;19.53;11.77;;;;;;;;;;5076045;28;20196;-70
2023/01/24 08:14:35;;;;;;;18.87;15.47;;;;;;;;;;5075903;28;20173;-70
2023/01/24 08:17:01;;;;;;;18.30;13.93;;;;;;;;;;5075261;28;20178;-72
2023/01/24 08:19:27;;;;;;;15.70;13.40;;;;;;;;;;5074360;28;20186;-72
2023/01/24 08:21:52;;;;;;;16.50;12.97;;;;;;;;;;5075684;28;20205;-71
2023/01/24 08:24:18;;;;;;;17.07;14.23;;;;;;;;;;5074461;28;20542;-72
2023/01/24 08:26:46;;;;;;;15.83;12.20;;;;;;;;;;5075985;28;20631;-71
2023/01/24 08:29:12;;;;;;;19.07;15.20;;;;;;;;;;5074393;28;20262;-71
2023/01/24 08:31:38;;;;;;;17.47;15.53;;;;;;;;;;5074419;28;20193;-70
2023/01/24 08:34:04;;;;;;;17.13;14.10;;;;;;;;;;5076051;28;20174;-70
2023/01/24 08:36:30;;;;;;;21.27;16.80;;;;;;;;;;5076083;28;20177;-70
2023/01/24 08:38:56;;;;;;;21.60;16.27;;;;;;;;;;5076539;28;20563;-70
2023/01/24 08:41:22;;;;;;;17.60;14.33;;;;;;;;;;5075756;28;20207;-70
2023/01/24 08:43:48;;;;;;;14.97;12.07;;;;;;;;;;5074731;28;20174;-71
2023/01/24 08:46:14;;;;;;;16.40;13.03;;;;;;;;;;5074366;28;20186;-70
2023/01/24 08:48:40;;;;;;;16.50;12.50;;;;;;;;;;5074119;28;20256;-70
2023/01/24 08:51:06;;;;;;;12.97;10.60;;;;;;;;;;5075097;28;20595;-71
2023/01/24 08:53:33;;;;;;;15.80;13.63;;;;;;;;;;5074621;28;20642;-71
2023/01/24 08:55:59;;;;;;;18.53;12.63;;;;;;;;;;5075079;28;20178;-70
2023/01/24 08:58:25;;;;;;;16.73;13.10;;;;;;;;;;5074644;28;20178;-71
2023/01/24 09:00:51;;;;;;;14.73;10.90;;;;;;;;;;5074493;28;20204;-70
2023/01/24 09:03:18;;;;;;;15.87;12.27;;;;;;;;;;5075182;28;20209;-70
2023/01/24 09:05:44;;;;;;;11.77;10.13;;;;;;;;;;5074738;28;20194;-70
2023/01/24 09:08:10;;;;;;;15.30;11.37;;;;;;;;;;5075492;28;20198;-70
2023/01/24 09:10:36;;;;;;;15.90;12.33;;;;;;;;;;5076226;28;20555;-70
2023/01/24 09:13:03;;;;;;;17.83;13.90;;;;;;;;;;5078450;28;20183;-71
2023/01/24 09:15:29;;;;;;;16.10;13.07;;;;;;;;;;5078671;28;20185;-70
2023/01/24 09:17:55;;;;;;;19.93;16.33;;;;;;;;;;5078348;28;20178;-70
2023/01/24 09:20:21;;;;;;;19.87;17.00;;;;;;;;;;5075688;28;20174;-70
2023/01/24 09:22:47;;;;;;;18.33;14.80;;;;;;;;;;5075178;28;20198;-70
2023/01/24 09:25:13;;;;;;;20.90;15.90;;;;;;;;;;5074483;28;20181;-71
2023/01/24 09:27:41;;;;;;;16.40;11.77;;;;;;;;;;5073706;28;20205;-70
2023/01/24 09:30:08;;;;;;;13.93;11.20;;;;;;;;;;5075175;28;20170;-70
2023/01/24 09:32:35;;;;;;;16.27;13.37;;;;;;;;;;5073271;28;20581;-70
2023/01/24 09:35:01;;;;;;;13.83;12.37;;;;;;;;;;5073765;28;20173;-71
2023/01/24 09:37:26;;;;;;;13.87;10.53;;;;;;;;;;5074576;28;20200;-71
2023/01/24 09:39:55;;;;;;;14.83;13.00;;;;;;;;;;5074254;28;20205;-70
2023/01/24 09:42:36;;;;;;;13.80;11.90;;;;;;;;;;5074455;28;20232;-70
2023/01/24 09:45:08;;;;;;;14.10;10.40;;;;;;;;;;5072855;28;20170;-71
2023/01/24 09:47:37;;;;;;;18.93;12.73;;;;;;;;;;5074322;28;20613;-70
2023/01/24 09:50:05;;;;;;;13.17;11.67;;;;;;;;;;5074262;28;20178;-70
2023/01/24 09:52:30;;;;;;;19.03;11.60;;;;;;;;;;5072619;28;20621;-71
2023/01/24 09:55:01;;;;;;;13.30;10.37;;;;;;;;;;5074176;28;20181;-70
2023/01/24 09:57:43;;;;;;;12.67;9.77;;;;;;;;;;5074270;28;20196;-71
2023/01/24 10:00:35;;;;;;;13.63;11.63;;;;;;;;;;5073041;28;20180;-70
2023/01/24 10:03:01;;;;;;;14.50;10.03;;;;;;;;;;5071825;28;20197;-71
2023/01/24 10:05:35;;;;;;;13.97;10.57;;;;;;;;;;5075210;28;20177;-70
2023/01/24 10:08:04;;;;;;;15.93;11.57;;;;;;;;;;5076382;28;20206;-70
2023/01/24 10:10:44;;;;;;;19.70;13.80;;;;;;;;;;5077731;28;20174;-70
2023/01/24 10:13:10;;;;;;;15.47;13.60;;;;;;;;;;5077008;28;20170;-70
2023/01/24 10:15:43;;;;;;;17.33;13.50;;;;;;;;;;5077161;28;20597;-70
2023/01/24 10:18:24;;;;;;;14.13;12.60;;;;;;;;;;5078217;28;20184;-70
2023/01/24 10:21:09;;;;;;;16.13;12.47;;;;;;;;;;5078413;28;20200;-71
2023/01/24 10:23:38;;;;;;;18.10;12.80;;;;;;;;;;5078271;28;20182;-70
2023/01/24 10:26:22;;;;;;;18.10;13.80;;;;;;;;;;5078253;28;20189;-70
2023/01/24 10:28:52;;;;;;;24.27;16.03;;;;;;;;;;5077537;28;20200;-71
2023/01/24 10:31:21;;;;;;;17.17;13.50;;;;;;;;;;5076442;28;20691;-70
2023/01/24 10:33:48;;;;;;;19.77;14.87;;;;;;;;;;5079067;28;20178;-70
2023/01/24 10:36:38;;;;;;;19.43;14.40;;;;;;;;;;5075856;28;20209;-71
2023/01/24 10:39:04;;;;;;;21.67;15.37;;;;;;;;;;5076908;28;20230;-71
2023/01/24 10:41:31;;;;;;;18.33;15.30;;;;;;;;;;5076685;28;20612;-71
2023/01/24 10:44:11;;;;;;;18.83;11.20;;;;;;;;;;5077365;28;20177;-71
2023/01/24 10:46:50;;;;;;;16.63;12.93;;;;;;;;;;5078278;28;20240;-70
2023/01/24 10:49:42;;;;;;;14.47;11.77;;;;;;;;;;5075959;28;20197;-70
2023/01/24 10:52:13;;;;;;;14.50;11.37;;;;;;;;;;5081440;28;20257;-69
2023/01/24 10:54:51;;;;;;;15.83;12.40;;;;;;;;;;5083768;28;20219;-69
2023/01/24 10:57:29;;;;;;;14.50;12.53;;;;;;;;;;5081147;28;20181;-69
2023/01/24 10:59:55;;;;;;;11.70;9.70;;;;;;;;;;5081375;28;20268;-70
2023/01/24 11:02:22;;;;;;;14.70;11.40;;;;;;;;;;5083241;28;20206;-70
2023/01/24 11:04:53;;;;;;;14.27;10.03;;;;;;;;;;5086110;28;20224;-70
2023/01/24 11:07:40;;;;;;;12.40;10.03;;;;;;;;;;5085578;28;20194;-70
2023/01/24 11:10:18;;;;;;;16.17;9.83;;;;;;;;;;5081646;28;20198;-70
2023/01/24 11:12:51;;;;;;;10.57;8.43;;;;;;;;;;5082906;28;20277;-70
2023/01/24 11:15:20;;;;;;;15.20;10.40;;;;;;;;;;5083037;28;20267;-70
2023/01/24 11:17:46;;;;;;;11.00;9.47;;;;;;;;;;5094074;28;20203;-69
2023/01/24 11:20:21;;;;;;;11.43;10.03;;;;;;;;;;5090097;28;20587;-70
2023/01/24 11:22:50;;;;;;;12.73;9.77;;;;;;;;;;5094096;28;20197;-70
2023/01/24 11:25:19;;;;;;;14.40;10.83;;;;;;;;;;5090000;28;20190;-70
2023/01/24 11:27:49;;;;;;;17.70;14.03;;;;;;;;;;5084772;28;20169;-69
2023/01/24 11:30:19;;;;;;;18.40;16.13;;;;;;;;;;5082014;28;20170;-69
2023/01/24 11:32:58;;;;;;;15.60;13.80;;;;;;;;;;5080835;28;20198;-70
2023/01/24 11:35:25;;;;;;;14.27;12.77;;;;;;;;;;5080314;28;20181;-70
2023/01/24 11:38:04;;;;;;;13.47;12.03;;;;;;;;;;5081956;28;20252;-70
2023/01/24 11:40:42;;;;;;;13.87;12.37;;;;;;;;;;5083530;28;20162;-69
2023/01/24 11:43:20;;;;;;;15.80;11.07;;;;;;;;;;5081908;28;20205;-70
2023/01/24 11:45:49;;;;;;;13.87;10.90;;;;;;;;;;5081816;28;20168;-70
2023/01/24 11:48:22;;;;;;;16.77;12.57;;;;;;;;;;5080388;28;20205;-69
2023/01/24 11:50:51;;;;;;;16.37;12.90;;;;;;;;;;5081914;28;20182;-69
2023/01/24 11:53:29;;;;;;;13.80;12.30;;;;;;;;;;5079235;28;20170;-69
2023/01/24 11:56:00;;;;;;;9.90;7.00;;;;;;;;;;5077463;28;20178;-69
2023/01/24 11:59:01;;;;;;;9.90;8.00;;;;;;;;;;5077442;28;20558;-70
2023/01/24 12:01:27;;;;;;;11.17;8.73;;;;;;;;;;5038022;28;20741;-70
2023/01/24 12:04:05;;;;;;;10.73;9.63;;;;;;;;;;5066950;28;20198;-70
2023/01/24 12:06:35;;;;;;;10.53;9.43;;;;;;;;;;5074858;28;20181;-69
2023/01/24 12:09:15;;;;;;;17.73;11.90;;;;;;;;;;5074862;28;20205;-69
2023/01/24 12:11:51;;;;;;;14.90;12.90;;;;;;;;;;5076570;28;20213;-70
2023/01/24 12:14:20;;;;;;;18.60;15.00;;;;;;;;;;5074236;28;20178;-70
2023/01/24 12:16:53;;;;;;;19.17;15.30;;;;;;;;;;5073867;28;20277;-69
2023/01/24 12:19:34;;;;;;;14.73;12.77;;;;;;;;;;5073888;28;20223;-70
2023/01/24 12:22:00;;;;;;;16.07;11.27;;;;;;;;;;5075661;28;20272;-69
2023/01/24 12:24:35;;;;;;;14.90;12.83;;;;;;;;;;5075669;28;20222;-70
2023/01/24 12:27:03;;;;;;;15.60;10.17;;;;;;;;;;5074333;28;20170;-69
2023/01/24 12:29:32;;;;;;;14.30;12.80;;;;;;;;;;5074628;28;20254;-69
2023/01/24 12:31:58;;;;;;;14.50;11.57;;;;;;;;;;5074885;28;20276;-69
2023/01/24 12:34:33;;;;;;;11.47;10.27;;;;;;;;;;5074889;28;20178;-70
2023/01/24 12:37:13;;;;;;;10.90;9.80;;;;;;;;;;5074673;28;20184;-69
2023/01/24 12:39:57;;;;;;;11.20;9.80;;;;;;;;;;5077156;28;20514;-71
2023/01/24 12:42:36;;;;;;;11.67;10.33;;;;;;;;;;5075706;28;20262;-69
2023/01/24 12:45:05;;;;;;;11.73;10.53;;;;;;;;;;5075880;28;20172;-69
2023/01/24 12:47:33;;;;;;;10.37;9.27;;;;;;;;;;5074241;28;20209;-71
2023/01/24 12:50:14;;;;;;;12.17;9.70;;;;;;;;;;5074606;28;20201;-70
2023/01/24 12:53:02;;;;;;;9.50;8.50;;;;;;;;;;5075177;28;20209;-70
2023/01/24 12:55:35;;;;;;;11.43;9.17;;;;;;;;;;5075619;28;20172;-70
2023/01/24 12:58:04;;;;;;;9.40;8.33;;;;;;;;;;5075297;28;20158;-70
2023/01/24 13:00:38;;;;;;;10.17;8.17;;;;;;;;;;5074788;28;20178;-69
2023/01/24 13:03:17;;;;;;;17.67;11.40;;;;;;;;;;5075477;28;20577;-69
2023/01/24 13:05:50;;;;;;;14.20;12.33;;;;;;;;;;5073956;28;20182;-69
2023/01/24 13:08:25;;;;;;;15.27;10.53;;;;;;;;;;5083192;28;20202;-70
2023/01/24 13:11:07;;;;;;;13.53;12.13;;;;;;;;;;5088025;28;20173;-69
2023/01/24 13:13:39;;;;;;;11.50;9.93;;;;;;;;;;5077420;28;20216;-70
2023/01/24 13:16:24;;;;;;;13.87;11.00;;;;;;;;;;5074692;28;20188;-67
2023/01/24 13:19:02;;;;;;;10.60;9.50;;;;;;;;;;5075352;28;20566;-70
2023/01/24 13:21:28;;;;;;;10.03;9.03;;;;;;;;;;5075533;28;20198;-69
2023/01/24 13:24:03;;;;;;;16.43;10.77;;;;;;;;;;5075308;28;20228;-70
2023/01/24 13:26:58;;;;;;;9.23;8.33;;;;;;;;;;5075794;28;20161;-69
2023/01/24 13:29:26;;;;;;;10.40;9.07;;;;;;;;;;5065206;28;20252;-69
2023/01/24 13:32:09;;;;;;;15.10;9.47;;;;;;;;;;5074736;28;20599;-70
2023/01/24 13:34:38;;;;;;;12.83;10.87;;;;;;;;;;5073086;28;20674;-70
2023/01/24 13:37:04;;;;;;;12.03;10.13;;;;;;;;;;5074600;28;20180;-69
2023/01/24 13:39:32;;;;;;;10.43;7.93;;;;;;;;;;5073590;28;20182;-69
2023/01/24 13:42:03;;;;;;;15.03;11.20;;;;;;;;;;5072734;28;20202;-68
2023/01/24 13:44:33;;;;;;;13.73;11.30;;;;;;;;;;5073172;28;20181;-69
2023/01/24 13:47:03;;;;;;;13.37;11.83;;;;;;;;;;5073153;28;20721;-69
2023/01/24 13:49:29;;;;;;;16.43;13.50;;;;;;;;;;5072907;28;20210;-69
2023/01/24 13:51:55;;;;;;;13.40;11.63;;;;;;;;;;5072858;28;20359;-69
2023/01/24 13:54:35;;;;;;;12.33;10.20;;;;;;;;;;5078945;28;20181;-70
2023/01/24 13:57:05;;;;;;;14.93;12.90;;;;;;;;;;5079476;28;20201;-70
2023/01/24 13:59:31;;;;;;;16.27;14.20;;;;;;;;;;5082088;28;20176;-70
2023/01/24 14:01:57;;;;;;;18.33;14.47;;;;;;;;;;5081187;28;20224;-69
2023/01/24 14:04:44;;;;;;;17.93;14.73;;;;;;;;;;5078030;28;20182;-69
2023/01/24 14:07:19;;;;;;;18.20;14.33;;;;;;;;;;5074880;28;20185;-68
2023/01/24 14:09:46;;;;;;;19.63;17.33;;;;;;;;;;5075718;28;20230;-68
2023/01/24 14:12:16;;;;;;;12.87;11.40;;;;;;;;;;5074986;28;20209;-71
2023/01/24 14:14:58;;;;;;;15.97;11.60;;;;;;;;;;5075326;28;20261;-71
2023/01/24 14:17:26;;;;;;;16.27;12.43;;;;;;;;;;5073141;28;20170;-69
2023/01/24 14:19:52;;;;;;;17.63;14.03;;;;;;;;;;5074544;28;20182;-69
2023/01/24 14:22:24;;;;;;;17.43;14.13;;;;;;;;;;5073929;28;20262;-69
2023/01/24 14:25:05;;;;;;;18.53;14.60;;;;;;;;;;5073545;28;20178;-69
2023/01/24 14:27:38;;;;;;;16.50;12.10;;;;;;;;;;5072809;28;20688;-67
2023/01/24 14:30:14;;;;;;;18.70;12.30;;;;;;;;;;5072402;28;20205;-69
2023/01/24 14:32:40;;;;;;;16.27;14.03;;;;;;;;;;5089428;28;20253;-69
2023/01/24 14:35:27;;;;;;;17.93;14.23;;;;;;;;;;5087739;28;20224;-69
2023/01/24 14:37:55;;;;;;;22.40;17.03;;;;;;;;;;5072733;28;20174;-70
2023/01/24 14:40:26;;;;;;;21.50;18.17;;;;;;;;;;5072800;28;20552;-69
2023/01/24 14:42:59;;;;;;;22.90;18.90;;;;;;;;;;5073772;28;20203;-68
2023/01/24 14:45:27;;;;;;;21.03;17.53;;;;;;;;;;5074012;28;20166;-69
2023/01/24 14:47:53;;;;;;;23.60;17.17;;;;;;;;;;5074191;28;20178;-69
2023/01/24 14:50:27;;;;;;;20.60;17.87;;;;;;;;;;5072897;28;20185;-69
2023/01/24 14:52:53;;;;;;;19.43;17.40;;;;;;;;;;5075453;28;20698;-69
2023/01/24 14:55:33;;;;;;;18.90;16.10;;;;;;;;;;5076550;28;20231;-68
2023/01/24 14:58:17;;;;;;;13.53;10.23;;;;;;;;;;5077939;28;20174;-69
2023/01/24 15:00:43;;;;;;;17.90;16.00;;;;;;;;;;5077481;28;20527;-70
2023/01/24 15:03:14;;;;;;;17.70;15.80;;;;;;;;;;5077762;28;20242;-69
2023/01/24 15:05:40;;;;;;;17.47;15.60;;;;;;;;;;5077909;28;20154;-69
2023/01/24 15:08:12;;;;;;;18.07;14.40;;;;;;;;;;5077888;28;20176;-68
2023/01/24 15:10:39;;;;;;;17.63;14.77;;;;;;;;;;5077866;28;20242;-69